Time;durP1;ratioP1;P1;durP2;ratioP2;P2;SDS_P1;SDS_P2;PMS_P1;PMS_P2;Temp;Humidity;BMP_temperature;BMP_pressure;BME280_temperature;BME280_humidity;BME280_pressure;Samples;Min_cycle;Max_cycle;Signal;HPM_P1;HPM_P2
2023/07/06 00:02:24;;;;;;;8.60;5.65;;;12.80;92.00;;;;;;5056453;28;20044;-81
2023/07/06 00:04:50;;;;;;;12.30;5.63;;;12.80;91.60;;;;;;5072685;28;20086;-81
2023/07/06 00:07:20;;;;;;;11.52;5.28;;;12.80;91.60;;;;;;5056087;28;20044;-79
2023/07/06 00:09:48;;;;;;;10.63;5.82;;;12.80;91.40;;;;;;5057144;28;20396;-82
2023/07/06 00:12:15;;;;;;;7.22;5.47;;;12.80;91.60;;;;;;5072593;28;20131;-81
2023/07/06 00:14:41;;;;;;;8.40;6.00;;;12.80;91.80;;;;;;5039678;28;20225;-82
2023/07/06 00:17:12;;;;;;;11.52;5.40;;;12.70;92.10;;;;;;5055719;28;20071;-79
2023/07/06 00:19:39;;;;;;;9.30;6.53;;;12.70;92.20;;;;;;5070430;28;20052;-82
2023/07/06 00:22:06;;;;;;;9.38;5.80;;;12.70;91.80;;;;;;5055075;28;20040;-82
2023/07/06 00:24:32;;;;;;;13.13;6.97;;;12.70;91.50;;;;;;5039491;28;20075;-82
2023/07/06 00:26:57;;;;;;;11.40;6.30;;;12.70;91.70;;;;;;5072609;28;20064;-81
2023/07/06 00:29:23;;;;;;;8.73;7.15;;;12.70;91.70;;;;;;5022855;28;20097;-82
2023/07/06 00:32:04;;;;;;;9.65;5.88;;;12.70;91.80;;;;;;5039254;28;20052;-80
2023/07/06 00:34:36;;;;;;;11.25;6.75;;;12.70;91.60;;;;;;5057309;28;20040;-80
2023/07/06 00:37:02;;;;;;;9.90;6.72;;;12.70;91.50;;;;;;5056100;28;20040;-80
2023/07/06 00:39:28;;;;;;;10.90;6.93;;;12.70;91.70;;;;;;5038857;28;20043;-80
2023/07/06 00:41:53;;;;;;;14.55;6.82;;;12.60;92.10;;;;;;5038865;28;20079;-82
2023/07/06 00:44:48;;;;;;;8.90;6.65;;;12.60;91.80;;;;;;5055173;28;20489;-81
2023/07/06 00:47:16;;;;;;;10.18;6.28;;;12.60;92.10;;;;;;5050805;28;20044;-81
2023/07/06 00:49:42;;;;;;;10.02;7.00;;;12.50;92.00;;;;;;5055093;28;20040;-81
2023/07/06 00:52:10;;;;;;;11.50;6.60;;;12.50;92.00;;;;;;5022081;28;20033;-80
2023/07/06 00:54:40;;;;;;;10.65;6.90;;;12.60;91.70;;;;;;5038781;28;20044;-81
2023/07/06 00:57:07;;;;;;;12.32;5.82;;;12.60;91.80;;;;;;5055034;28;20127;-81
2023/07/06 00:59:35;;;;;;;10.65;5.72;;;12.50;92.20;;;;;;5072185;28;20464;-80
2023/07/06 01:02:02;;;;;;;11.35;6.82;;;12.50;92.00;;;;;;5055409;28;20085;-79
2023/07/06 01:04:30;;;;;;;9.25;5.63;;;12.50;92.20;;;;;;5071760;28;20127;-80
2023/07/06 01:06:56;;;;;;;12.68;5.97;;;12.50;92.20;;;;;;5039594;28;20504;-82
2023/07/06 01:09:27;;;;;;;11.30;6.45;;;12.50;92.40;;;;;;5059205;28;20037;-79
2023/07/06 01:11:55;;;;;;;11.27;6.00;;;12.50;92.70;;;;;;5059540;28;20428;-82
2023/07/06 01:14:21;;;;;;;10.20;6.43;;;12.50;92.70;;;;;;5075723;28;20044;-81
2023/07/06 01:17:00;;;;;;;8.77;5.80;;;12.50;92.30;;;;;;5058916;28;20043;-80
2023/07/06 01:20:00;;;;;;;8.55;6.32;;;12.50;92.30;;;;;;5075517;28;20539;-81
2023/07/06 01:22:35;;;;;;;9.13;6.32;;;12.50;92.40;;;;;;5075540;28;20119;-82
2023/07/06 01:25:35;;;;;;;10.55;5.95;;;12.50;92.50;;;;;;5058894;28;20040;-80
2023/07/06 01:28:22;;;;;;;8.48;5.60;;;12.50;92.80;;;;;;5057702;28;20511;-83
2023/07/06 01:31:09;;;;;;;8.27;5.30;;;12.50;92.50;;;;;;5058665;28;20048;-80
2023/07/06 01:33:40;;;;;;;9.13;6.47;;;12.60;92.40;;;;;;5059089;28;20109;-83
2023/07/06 01:36:33;;;;;;;8.27;5.90;;;12.60;92.10;;;;;;5058735;28;20041;-80
2023/07/06 01:39:20;;;;;;;11.05;6.13;;;12.60;92.20;;;;;;5075989;28;20130;-80
2023/07/06 01:42:08;;;;;;;8.68;6.50;;;12.70;92.50;;;;;;5075351;28;20037;-81
2023/07/06 01:44:35;;;;;;;13.32;6.10;;;12.70;92.40;;;;;;5054767;28;20048;-81
2023/07/06 01:47:03;;;;;;;9.38;6.22;;;12.70;92.60;;;;;;5075505;28;20036;-81
2023/07/06 01:49:30;;;;;;;9.68;6.90;;;12.70;92.50;;;;;;5060771;28;20040;-81
2023/07/06 01:52:14;;;;;;;9.07;7.28;;;12.70;92.70;;;;;;5084736;28;20020;-81
2023/07/06 01:54:50;;;;;;;7.68;6.22;;;12.70;93.00;;;;;;5078129;28;20040;-81
2023/07/06 01:57:31;;;;;;;13.77;5.97;;;12.70;92.90;;;;;;5076940;28;20092;-80
2023/07/06 02:00:00;;;;;;;6.72;5.88;;;12.70;92.70;;;;;;5062551;28;20119;-82
2023/07/06 02:02:30;;;;;;;7.70;5.53;;;12.70;92.70;;;;;;5083583;28;20071;-81
2023/07/06 02:04:57;;;;;;;9.30;6.32;;;12.70;92.60;;;;;;5064308;28;20066;-81
2023/07/06 02:07:24;;;;;;;9.93;5.85;;;12.70;92.70;;;;;;5059578;28;20127;-81
2023/07/06 02:09:54;;;;;;;11.30;6.10;;;12.60;92.70;;;;;;5044639;28;20036;-81
2023/07/06 02:12:21;;;;;;;9.75;6.38;;;12.60;92.60;;;;;;5075880;28;20040;-82
2023/07/06 02:14:48;;;;;;;9.07;6.78;;;12.60;92.60;;;;;;5069348;28;20396;-81
2023/07/06 02:17:15;;;;;;;11.30;5.82;;;12.50;92.60;;;;;;5041222;28;20141;-80
2023/07/06 02:19:42;;;;;;;10.63;5.93;;;12.50;92.60;;;;;;5057742;28;20127;-81
2023/07/06 02:22:09;;;;;;;13.25;6.13;;;12.50;92.60;;;;;;5058001;28;20364;-81
2023/07/06 02:24:36;;;;;;;7.43;5.53;;;12.50;92.60;;;;;;5041506;28;20132;-82
2023/07/06 02:27:02;;;;;;;10.93;6.93;;;12.50;92.50;;;;;;5057717;28;20045;-80
2023/07/06 02:29:27;;;;;;;10.15;6.78;;;12.40;92.50;;;;;;5041198;28;20131;-81
2023/07/06 02:31:53;;;;;;;9.32;6.05;;;12.50;92.60;;;;;;5074229;28;20067;-81
2023/07/06 02:34:24;;;;;;;8.43;5.75;;;12.40;92.70;;;;;;5057841;28;20048;-81
2023/07/06 02:36:51;;;;;;;10.38;6.30;;;12.40;92.80;;;;;;5058184;28;20055;-81
2023/07/06 02:39:20;;;;;;;8.50;6.85;;;12.40;92.70;;;;;;5057463;28;20089;-81
2023/07/06 02:41:46;;;;;;;8.57;5.20;;;12.40;92.80;;;;;;5041217;28;20041;-81
2023/07/06 02:44:12;;;;;;;9.57;6.38;;;12.30;92.90;;;;;;5074006;28;20508;-80
2023/07/06 02:46:38;;;;;;;8.90;5.50;;;12.30;93.10;;;;;;5040707;28;20040;-81
2023/07/06 02:49:04;;;;;;;9.95;6.28;;;12.30;93.00;;;;;;5024343;28;20047;-81
2023/07/06 02:51:32;;;;;;;10.77;5.90;;;12.40;93.00;;;;;;5040748;28;20048;-81
2023/07/06 02:53:58;;;;;;;8.40;5.38;;;12.30;93.00;;;;;;5057133;28;20044;-81
2023/07/06 02:56:26;;;;;;;12.73;5.72;;;12.30;93.00;;;;;;5057087;28;20052;-80
2023/07/06 02:58:52;;;;;;;10.23;6.20;;;12.40;93.20;;;;;;5025192;28;20091;-81
2023/07/06 03:01:18;;;;;;;7.50;5.95;;;12.40;93.50;;;;;;5057297;28;20036;-84
2023/07/06 03:03:44;;;;;;;10.70;6.45;;;12.40;93.50;;;;;;5056940;28;20385;-82
2023/07/06 03:06:12;;;;;;;7.50;6.07;;;12.40;93.60;;;;;;5057151;28;20040;-82
2023/07/06 03:08:38;;;;;;;13.52;7.50;;;12.40;93.80;;;;;;5024613;28;20131;-81
2023/07/06 03:11:04;;;;;;;7.75;6.10;;;12.40;93.90;;;;;;5040411;28;20066;-82
2023/07/06 03:13:31;;;;;;;11.88;7.82;;;12.50;94.20;;;;;;5056747;28;20123;-81
2023/07/06 03:15:58;;;;;;;10.18;6.70;;;12.50;94.50;;;;;;5040288;28;20047;-81
2023/07/06 03:18:25;;;;;;;14.18;8.13;;;12.60;94.80;;;;;;5040201;28;20480;-81
2023/07/06 03:20:51;;;;;;;12.60;6.40;;;12.60;94.70;;;;;;5056028;28;20136;-81
2023/07/06 03:23:18;;;;;;;13.30;7.85;;;12.60;94.20;;;;;;5039098;28;20534;-81
2023/07/06 03:25:44;;;;;;;8.20;6.30;;;12.70;94.90;;;;;;5039520;28;20059;-80
2023/07/06 03:28:10;;;;;;;9.38;6.78;;;12.80;94.90;;;;;;5056061;28;20123;-81
2023/07/06 03:30:35;;;;;;;7.90;6.90;;;12.90;95.10;;;;;;5055407;28;20043;-80
2023/07/06 03:33:01;;;;;;;14.38;8.02;;;12.90;94.80;;;;;;5056458;28;20076;-81
2023/07/06 03:35:28;;;;;;;9.25;6.57;;;13.00;94.80;;;;;;5072891;28;20347;-80
2023/07/06 03:37:55;;;;;;;11.40;7.47;;;13.00;94.80;;;;;;5039875;28;20052;-82
2023/07/06 03:40:21;;;;;;;10.23;5.95;;;13.10;94.90;;;;;;5056424;28;20098;-80
2023/07/06 03:42:48;;;;;;;6.97;5.63;;;13.10;94.60;;;;;;5039846;28;20044;-81
2023/07/06 03:45:16;;;;;;;10.43;6.97;;;13.10;94.70;;;;;;5056545;28;20389;-82
2023/07/06 03:47:43;;;;;;;8.93;6.20;;;13.10;94.50;;;;;;5072785;28;20040;-81
2023/07/06 03:50:14;;;;;;;11.82;7.60;;;13.20;94.50;;;;;;5039703;28;20045;-82
2023/07/06 03:52:41;;;;;;;9.43;6.90;;;13.10;94.30;;;;;;5072875;28;20044;-82
2023/07/06 03:55:20;;;;;;;14.82;7.60;;;13.20;94.30;;;;;;5039828;28;20392;-82
2023/07/06 03:57:46;;;;;;;11.50;7.18;;;13.20;94.50;;;;;;5056253;28;20133;-80
2023/07/06 04:00:19;;;;;;;14.43;8.30;;;13.20;94.70;;;;;;5072833;28;20037;-81
2023/07/06 04:02:50;;;;;;;11.25;8.25;;;13.20;94.60;;;;;;5056670;28;20062;-82
2023/07/06 04:05:17;;;;;;;9.73;7.20;;;13.20;94.60;;;;;;5056012;28;20041;-80
2023/07/06 04:07:45;;;;;;;12.90;8.55;;;13.20;94.60;;;;;;5039748;28;20040;-80
2023/07/06 04:10:12;;;;;;;15.77;8.07;;;13.10;94.40;;;;;;5039210;28;20032;-83
2023/07/06 04:12:38;;;;;;;12.80;8.68;;;13.20;94.50;;;;;;5039421;28;20385;-81
2023/07/06 04:15:06;;;;;;;12.65;7.57;;;13.10;94.60;;;;;;5023003;28;20040;-80
2023/07/06 04:17:32;;;;;;;16.02;8.75;;;13.00;94.60;;;;;;5055633;28;20064;-82
2023/07/06 04:19:59;;;;;;;11.73;8.75;;;13.10;94.60;;;;;;5055717;28;20110;-81
2023/07/06 04:22:25;;;;;;;15.32;8.95;;;13.10;94.90;;;;;;5039189;28;20045;-82
2023/07/06 04:24:51;;;;;;;14.52;9.30;;;13.10;94.80;;;;;;5038931;28;20472;-81
2023/07/06 04:27:17;;;;;;;18.70;9.32;;;13.10;94.70;;;;;;5039211;28;20041;-81
2023/07/06 04:29:44;;;;;;;17.88;9.30;;;13.10;94.70;;;;;;5039038;28;20086;-81
2023/07/06 04:32:10;;;;;;;10.30;6.97;;;13.10;94.70;;;;;;5039374;28;20439;-82
2023/07/06 04:34:39;;;;;;;16.58;9.60;;;13.10;94.70;;;;;;5055467;28;20131;-81
2023/07/06 04:37:05;;;;;;;16.27;8.55;;;13.20;94.90;;;;;;5039575;28;20037;-81
2023/07/06 04:39:33;;;;;;;16.77;10.30;;;13.20;94.80;;;;;;5055435;28;20503;-82
2023/07/06 04:41:59;;;;;;;15.50;9.50;;;13.20;94.70;;;;;;5055669;28;20093;-81
2023/07/06 04:44:25;;;;;;;16.92;10.18;;;13.20;94.70;;;;;;5055839;28;20125;-82
2023/07/06 04:46:50;;;;;;;15.70;9.82;;;13.30;94.60;;;;;;5055959;28;20522;-82
2023/07/06 04:49:16;;;;;;;19.95;12.00;;;13.40;94.60;;;;;;5055798;28;20040;-81
2023/07/06 04:51:42;;;;;;;19.23;10.57;;;13.40;94.90;;;;;;5039404;28;20037;-82
2023/07/06 04:54:08;;;;;;;20.90;11.82;;;13.50;94.80;;;;;;5022389;28;20510;-81
2023/07/06 04:56:37;;;;;;;17.48;11.48;;;13.50;95.50;;;;;;5022323;28;20051;-81
2023/07/06 04:59:04;;;;;;;21.83;13.43;;;13.60;95.20;;;;;;5023211;28;20091;-80
2023/07/06 05:01:29;;;;;;;22.10;12.98;;;13.60;95.70;;;;;;5022716;28;20037;-82
2023/07/06 05:03:55;;;;;;;22.88;12.68;;;13.80;96.20;;;;;;5055357;28;20358;-80
2023/07/06 05:06:21;;;;;;;22.33;13.80;;;13.80;96.00;;;;;;5039018;28;20052;-81
2023/07/06 05:08:49;;;;;;;26.50;12.73;;;13.90;96.10;;;;;;5022511;28;20495;-81
2023/07/06 05:11:15;;;;;;;23.45;13.30;;;13.90;95.90;;;;;;5038732;28;20047;-82
2023/07/06 05:13:41;;;;;;;19.88;13.23;;;14.00;96.90;;;;;;5071883;28;20045;-81
2023/07/06 05:16:07;;;;;;;27.95;14.30;;;14.10;96.80;;;;;;5054919;28;20119;-80
2023/07/06 05:18:33;;;;;;;23.27;13.30;;;14.20;96.90;;;;;;5054935;28;20032;-80
2023/07/06 05:20:58;;;;;;;24.10;14.43;;;14.20;96.30;;;;;;5054630;28;20049;-80
2023/07/06 05:23:28;;;;;;;21.20;13.70;;;14.30;96.60;;;;;;5055362;28;20051;-81
2023/07/06 05:25:56;;;;;;;22.50;12.38;;;14.40;96.80;;;;;;5071935;28;20048;-78
2023/07/06 05:28:22;;;;;;;22.67;11.60;;;14.50;96.40;;;;;;5071638;28;20086;-81
2023/07/06 05:30:49;;;;;;;22.80;12.13;;;14.60;97.30;;;;;;5054896;28;20059;-81
2023/07/06 05:33:15;;;;;;;27.50;12.55;;;14.70;96.80;;;;;;5054643;28;20050;-78
2023/07/06 05:35:42;;;;;;;21.42;11.32;;;14.70;96.40;;;;;;5021589;28;20045;-80
2023/07/06 05:38:10;;;;;;;20.52;11.18;;;14.80;95.80;;;;;;5071562;28;20045;-79
2023/07/06 05:40:37;;;;;;;17.50;10.02;;;14.90;96.50;;;;;;5046829;28;20045;-80
2023/07/06 05:43:03;;;;;;;21.60;10.35;;;15.10;96.70;;;;;;5066633;28;20452;-81
2023/07/06 05:45:29;;;;;;;24.73;9.85;;;15.10;96.30;;;;;;5038648;28;20079;-80
2023/07/06 05:47:54;;;;;;;19.67;10.38;;;15.20;96.20;;;;;;5038406;28;20416;-82
2023/07/06 05:50:20;;;;;;;24.55;11.43;;;15.30;95.90;;;;;;5054938;28;20037;-80
2023/07/06 05:52:46;;;;;;;24.15;11.20;;;15.40;96.10;;;;;;5022275;28;20091;-80
2023/07/06 05:55:12;;;;;;;18.40;10.90;;;15.50;96.00;;;;;;5015556;28;20045;-79
2023/07/06 05:57:38;;;;;;;18.38;9.15;;;15.50;95.80;;;;;;5052004;28;20123;-79
2023/07/06 06:00:09;;;;;;;18.63;9.23;;;15.60;95.60;;;;;;5031945;28;20136;-81
2023/07/06 06:02:36;;;;;;;18.33;9.02;;;15.70;95.50;;;;;;5049132;28;20047;-79
2023/07/06 06:05:02;;;;;;;15.80;9.48;;;15.80;95.50;;;;;;5038252;28;20041;-80
2023/07/06 06:07:31;;;;;;;19.65;9.75;;;15.90;95.30;;;;;;5038376;28;20095;-81
2023/07/06 06:09:57;;;;;;;18.35;9.07;;;16.00;95.10;;;;;;5022179;28;20080;-80
2023/07/06 06:12:23;;;;;;;19.23;8.02;;;16.00;94.90;;;;;;5055049;28;20041;-80
2023/07/06 06:14:52;;;;;;;26.92;8.43;;;16.10;94.30;;;;;;5038293;28;20048;-79
2023/07/06 06:17:19;;;;;;;24.83;7.85;;;16.20;94.10;;;;;;5054852;28;20045;-80
2023/07/06 06:19:46;;;;;;;19.02;7.80;;;16.30;94.20;;;;;;5021588;28;20049;-80
2023/07/06 06:22:14;;;;;;;15.60;7.90;;;16.40;94.00;;;;;;5054398;28;20041;-80
2023/07/06 06:24:40;;;;;;;17.08;6.55;;;16.50;93.80;;;;;;5038165;28;20045;-80
2023/07/06 06:27:06;;;;;;;13.13;6.55;;;16.50;92.90;;;;;;5039231;28;20072;-78
2023/07/06 06:29:33;;;;;;;14.32;5.97;;;16.60;93.00;;;;;;5037934;28;20486;-81
2023/07/06 06:32:03;;;;;;;14.68;5.97;;;16.70;92.40;;;;;;5021298;28;20041;-80
2023/07/06 06:34:29;;;;;;;11.70;4.30;;;16.70;91.40;;;;;;5038305;28;20404;-81
2023/07/06 06:36:55;;;;;;;17.70;6.20;;;16.80;90.30;;;;;;5038060;28;20044;-83
2023/07/06 06:39:21;;;;;;;9.43;4.88;;;16.90;89.80;;;;;;5021682;28;20416;-80
2023/07/06 06:41:47;;;;;;;14.50;5.30;;;16.90;89.10;;;;;;5021651;28;20401;-81
2023/07/06 06:44:13;;;;;;;11.95;4.80;;;17.00;88.50;;;;;;5005365;28;20037;-81
2023/07/06 06:46:39;;;;;;;9.93;4.03;;;17.00;87.30;;;;;;5054374;28;20045;-81
2023/07/06 06:49:05;;;;;;;9.52;4.28;;;17.10;86.90;;;;;;5037894;28;20040;-83
2023/07/06 06:51:30;;;;;;;6.63;3.75;;;17.20;86.70;;;;;;5021646;28;20405;-83
2023/07/06 06:53:56;;;;;;;8.68;4.15;;;17.30;86.20;;;;;;5021251;28;20040;-79
2023/07/06 06:56:24;;;;;;;7.38;3.88;;;17.30;86.20;;;;;;5021288;28;20091;-83
2023/07/06 06:58:52;;;;;;;6.97;2.70;;;17.40;85.30;;;;;;5005618;28;20033;-81
2023/07/06 07:01:17;;;;;;;5.63;2.47;;;17.50;84.90;;;;;;5021404;28;20041;-82
2023/07/06 07:03:44;;;;;;;6.78;2.88;;;17.50;82.90;;;;;;5020662;28;20040;-81
2023/07/06 07:06:12;;;;;;;8.82;3.03;;;17.60;80.80;;;;;;5020376;28;20392;-81
2023/07/06 07:08:41;;;;;;;6.63;3.05;;;17.60;80.60;;;;;;5020753;28;20623;-81
2023/07/06 07:11:07;;;;;;;6.57;3.45;;;17.70;80.00;;;;;;5021980;28;20045;-81
2023/07/06 07:13:35;;;;;;;5.32;2.38;;;17.90;79.30;;;;;;5054274;28;20053;-82
2023/07/06 07:16:02;;;;;;;3.38;2.28;;;17.90;79.00;;;;;;5020932;28;20544;-82
2023/07/06 07:18:28;;;;;;;5.95;2.80;;;18.00;76.40;;;;;;5053432;28;20053;-80
2023/07/06 07:20:54;;;;;;;4.15;2.40;;;18.00;76.70;;;;;;5020228;28;20053;-80
2023/07/06 07:23:24;;;;;;;6.32;2.50;;;18.10;77.20;;;;;;5020491;28;20041;-81
2023/07/06 07:25:51;;;;;;;6.63;2.95;;;18.20;76.30;;;;;;5053635;28;20504;-81
2023/07/06 07:28:17;;;;;;;9.15;3.20;;;18.30;76.10;;;;;;5020556;28;20485;-81
2023/07/06 07:30:54;;;;;;;7.75;3.22;;;18.40;76.50;;;;;;5036671;28;20048;-82
2023/07/06 07:33:20;;;;;;;7.00;2.90;;;18.40;76.10;;;;;;5036576;28;20037;-81
2023/07/06 07:35:46;;;;;;;9.32;2.85;;;18.40;75.30;;;;;;5053393;28;20128;-81
2023/07/06 07:38:12;;;;;;;5.88;2.45;;;18.30;75.20;;;;;;5037002;28;20049;-81
2023/07/06 07:40:38;;;;;;;7.65;2.60;;;18.40;74.00;;;;;;5036714;28;20086;-82
2023/07/06 07:43:04;;;;;;;4.20;2.00;;;18.50;74.50;;;;;;5026331;28;20397;-81
2023/07/06 07:45:29;;;;;;;6.35;2.40;;;18.60;74.00;;;;;;5036452;28;20508;-81
2023/07/06 07:47:56;;;;;;;8.85;2.17;;;18.60;73.30;;;;;;5003820;28;20044;-81
2023/07/06 07:50:21;;;;;;;7.25;2.40;;;18.60;73.10;;;;;;5020192;28;20037;-83
2023/07/06 07:52:48;;;;;;;6.45;2.30;;;18.50;71.70;;;;;;5036434;28;20063;-81
2023/07/06 07:55:14;;;;;;;3.95;1.83;;;18.50;73.20;;;;;;5052894;28;20515;-81
2023/07/06 07:57:40;;;;;;;4.65;2.10;;;18.70;73.40;;;;;;5052551;28;20505;-80
2023/07/06 08:00:09;;;;;;;5.07;2.25;;;18.80;73.00;;;;;;5036204;28;20091;-80
2023/07/06 08:02:35;;;;;;;4.10;1.83;;;18.90;73.10;;;;;;5019810;28;20037;-79
2023/07/06 08:05:04;;;;;;;4.38;1.90;;;19.00;70.20;;;;;;5052506;28;20075;-81
2023/07/06 08:07:31;;;;;;;5.80;2.20;;;19.10;71.70;;;;;;5003785;28;20056;-81
2023/07/06 08:09:57;;;;;;;4.90;2.35;;;19.10;71.20;;;;;;5003585;28;20111;-80
2023/07/06 08:12:23;;;;;;;4.38;2.15;;;19.00;71.40;;;;;;5052320;28;20051;-80
2023/07/06 08:14:49;;;;;;;4.75;2.05;;;19.00;71.50;;;;;;5019741;28;20128;-79
2023/07/06 08:17:16;;;;;;;6.03;2.22;;;19.10;72.00;;;;;;5035251;28;20051;-80
2023/07/06 08:19:42;;;;;;;6.63;2.50;;;19.20;71.70;;;;;;5030245;28;20060;-79
2023/07/06 08:22:08;;;;;;;4.75;2.35;;;19.30;70.90;;;;;;5027526;28;20401;-80
2023/07/06 08:24:33;;;;;;;7.20;2.13;;;19.30;69.40;;;;;;5048603;28;20513;-79
2023/07/06 08:26:59;;;;;;;5.07;1.92;;;19.30;69.00;;;;;;5046391;28;20048;-80
2023/07/06 08:29:26;;;;;;;4.15;2.08;;;19.30;68.60;;;;;;5064936;28;20127;-79
2023/07/06 08:31:52;;;;;;;4.25;2.05;;;19.30;67.60;;;;;;5047237;28;20127;-79
2023/07/06 08:34:18;;;;;;;6.32;2.10;;;19.30;68.60;;;;;;5048408;28;20695;-79
2023/07/06 08:36:44;;;;;;;6.95;2.40;;;19.50;68.30;;;;;;5065469;28;20044;-79
2023/07/06 08:39:10;;;;;;;5.95;2.40;;;19.60;65.40;;;;;;5065373;28;20052;-80
2023/07/06 08:41:44;;;;;;;3.33;1.92;;;19.60;64.40;;;;;;5031030;28;20400;-79
2023/07/06 08:44:13;;;;;;;2.80;1.60;;;19.60;66.60;;;;;;5047552;28;20051;-78
2023/07/06 08:46:45;;;;;;;2.78;1.70;;;19.60;64.40;;;;;;5065180;28;20041;-80
2023/07/06 08:49:22;;;;;;;3.65;1.60;;;19.70;65.30;;;;;;5048674;28;20051;-78
2023/07/06 08:51:51;;;;;;;4.57;1.73;;;19.70;63.80;;;;;;5047521;28;20048;-80
2023/07/06 08:54:24;;;;;;;3.65;1.90;;;19.70;61.70;;;;;;5016098;28;20044;-78
2023/07/06 08:56:50;;;;;;;2.10;1.40;;;19.70;63.30;;;;;;5048548;28;20490;-78
2023/07/06 08:59:32;;;;;;;5.03;1.80;;;19.70;63.80;;;;;;5047866;28;20040;-79
2023/07/06 09:02:01;;;;;;;2.72;1.83;;;19.80;62.80;;;;;;5064125;28;20082;-78
2023/07/06 09:04:27;;;;;;;3.95;1.63;;;19.90;62.50;;;;;;5047762;28;20044;-78
2023/07/06 09:06:57;;;;;;;4.72;1.67;;;20.00;62.40;;;;;;5064177;28;20048;-79
2023/07/06 09:09:23;;;;;;;6.03;1.63;;;19.90;62.60;;;;;;5048305;28;20052;-79
2023/07/06 09:11:50;;;;;;;4.72;1.38;;;19.80;62.50;;;;;;5047040;28;20082;-79
2023/07/06 09:14:20;;;;;;;2.70;1.55;;;19.90;62.20;;;;;;5064755;28;20053;-80
2023/07/06 09:16:49;;;;;;;3.13;2.17;;;19.90;62.70;;;;;;5047919;28;20044;-81
2023/07/06 09:19:17;;;;;;;2.58;1.83;;;19.70;63.30;;;;;;5048169;28;20052;-80
2023/07/06 09:21:47;;;;;;;5.60;1.58;;;19.80;63.90;;;;;;5047052;28;20560;-78
2023/07/06 09:24:13;;;;;;;3.75;1.52;;;19.90;63.90;;;;;;5042544;28;20124;-80
2023/07/06 09:26:42;;;;;;;6.20;2.40;;;19.90;62.90;;;;;;5048341;28;20374;-80
2023/07/06 09:29:18;;;;;;;2.55;1.35;;;20.00;63.60;;;;;;5046604;28;20452;-79
2023/07/06 09:31:44;;;;;;;4.63;1.60;;;20.20;63.10;;;;;;5067032;28;20508;-79
2023/07/06 09:34:27;;;;;;;3.80;1.83;;;20.30;64.00;;;;;;5051639;28;20136;-80
2023/07/06 09:36:52;;;;;;;3.97;1.90;;;20.30;61.70;;;;;;5052138;28;20166;-79
2023/07/06 09:39:18;;;;;;;5.07;2.20;;;20.40;63.00;;;;;;5068211;28;20139;-78
2023/07/06 09:41:45;;;;;;;5.57;2.40;;;20.50;64.50;;;;;;5049758;28;20041;-79
2023/07/06 09:44:16;;;;;;;4.05;1.95;;;20.50;65.10;;;;;;5068186;28;20128;-79
2023/07/06 09:46:43;;;;;;;5.15;2.33;;;20.50;65.70;;;;;;5051820;28;20055;-79
2023/07/06 09:49:19;;;;;;;3.72;2.05;;;20.50;64.70;;;;;;5051912;28;20052;-80
2023/07/06 09:51:52;;;;;;;6.65;2.70;;;20.40;65.00;;;;;;5051253;28;20110;-81
2023/07/06 09:54:25;;;;;;;3.85;2.08;;;20.30;65.40;;;;;;5069043;28;20048;-81
2023/07/06 09:56:51;;;;;;;5.20;2.60;;;20.10;65.80;;;;;;5051005;28;20145;-80
2023/07/06 09:59:18;;;;;;;3.45;2.30;;;20.00;65.70;;;;;;5051678;28;20084;-80
2023/07/06 10:02:09;;;;;;;2.85;1.98;;;19.90;66.70;;;;;;5066181;28;20955;-80
2023/07/06 10:05:01;;;;;;;4.18;2.05;;;19.90;66.20;;;;;;5067547;28;20041;-82
2023/07/06 10:07:46;;;;;;;3.40;2.35;;;19.80;66.00;;;;;;5052011;28;20094;-80
2023/07/06 10:10:30;;;;;;;4.72;2.70;;;19.70;66.20;;;;;;5066924;28;20048;-81
2023/07/06 10:13:17;;;;;;;5.47;2.45;;;19.70;66.90;;;;;;5051380;28;20079;-82
2023/07/06 10:15:51;;;;;;;3.33;2.35;;;19.60;67.00;;;;;;5050622;28;20397;-80
2023/07/06 10:18:22;;;;;;;;;;;19.50;67.70;;;;;;5059787;28;20499;-80
2023/07/06 10:21:04;;;;;;;5.50;2.70;;;19.40;67.80;;;;;;5037304;28;19921;-81
2023/07/06 10:23:42;;;;;;;5.10;2.50;;;19.40;68.90;;;;;;5054500;28;20076;-80
2023/07/06 10:26:28;;;;;;;5.40;2.58;;;19.40;69.70;;;;;;5053992;28;20055;-80
2023/07/06 10:29:16;;;;;;;6.70;2.47;;;19.50;70.10;;;;;;5037958;28;20432;-82
2023/07/06 10:32:10;;;;;;;4.85;2.42;;;19.70;69.70;;;;;;5054392;28;20090;-81
2023/07/06 10:34:53;;;;;;;5.40;2.13;;;19.90;69.40;;;;;;5033400;28;20183;-81
2023/07/06 10:37:22;;;;;;;3.88;1.60;;;20.00;65.20;;;;;;5054184;28;20041;-81
2023/07/06 10:39:50;;;;;;;4.38;1.63;;;20.00;67.00;;;;;;5020947;28;20071;-81
2023/07/06 10:42:25;;;;;;;3.40;1.73;;;20.10;65.30;;;;;;5037575;28;20115;-82
2023/07/06 10:44:52;;;;;;;3.90;1.80;;;20.30;65.70;;;;;;5036928;28;20037;-80
2023/07/06 10:47:38;;;;;;;2.70;1.50;;;20.60;64.50;;;;;;5037501;28;20481;-81
2023/07/06 10:50:40;;;;;;;5.88;1.60;;;20.90;62.60;;;;;;5037582;28;20432;-81
2023/07/06 10:53:17;;;;;;;3.55;1.30;;;21.20;61.40;;;;;;5053754;28;20041;-81
2023/07/06 10:55:58;;;;;;;3.22;1.15;;;21.30;58.30;;;;;;5037492;28;20045;-81
2023/07/06 10:58:33;;;;;;;3.55;1.45;;;21.50;58.20;;;;;;5037353;28;20037;-81
2023/07/06 11:01:04;;;;;;;3.38;1.75;;;21.80;58.90;;;;;;5053778;28;20040;-81
2023/07/06 11:03:31;;;;;;;2.25;1.10;;;21.90;57.40;;;;;;5053794;28;20041;-80
2023/07/06 11:06:07;;;;;;;3.95;1.33;;;21.90;55.90;;;;;;5053961;28;20044;-80
2023/07/06 11:09:04;;;;;;;3.88;1.20;;;21.60;56.10;;;;;;5053809;28;20145;-80
2023/07/06 11:11:34;;;;;;;4.55;1.42;;;21.50;57.00;;;;;;5037425;28;20055;-82
2023/07/06 11:14:20;;;;;;;3.17;1.95;;;21.70;58.30;;;;;;5054102;28;20102;-82
2023/07/06 11:17:26;;;;;;;2.85;1.35;;;22.00;57.70;;;;;;5037184;28;20371;-82
2023/07/06 11:19:56;;;;;;;4.22;1.27;;;22.30;55.40;;;;;;5022086;28;20111;-82
2023/07/06 11:22:24;;;;;;;2.88;1.17;;;22.40;54.50;;;;;;5036879;28;20107;-81
2023/07/06 11:24:54;;;;;;;2.55;1.30;;;22.40;54.00;;;;;;5036797;28;20048;-82
2023/07/06 11:27:26;;;;;;;3.95;1.70;;;22.50;53.70;;;;;;5037147;28;20032;-82
2023/07/06 11:29:59;;;;;;;3.92;1.40;;;22.60;54.40;;;;;;5037043;28;20041;-79
2023/07/06 11:32:31;;;;;;;2.95;1.30;;;22.70;53.90;;;;;;5036715;28;20052;-80
2023/07/06 11:35:16;;;;;;;3.92;1.20;;;22.50;53.30;;;;;;5053136;28;20493;-79
2023/07/06 11:38:06;;;;;;;2.35;1.52;;;22.40;54.30;;;;;;5036315;28;20041;-78
2023/07/06 11:41:01;;;;;;;3.60;1.30;;;22.30;55.10;;;;;;5036691;28;20440;-79
2023/07/06 11:44:01;;;;;;;6.13;1.63;;;22.50;55.00;;;;;;5053013;28;20069;-79
2023/07/06 11:46:31;;;;;;;2.47;1.50;;;22.50;54.20;;;;;;5036306;28;20047;-80
2023/07/06 11:49:05;;;;;;;3.55;1.48;;;22.50;54.90;;;;;;5036261;28;20493;-79
2023/07/06 11:51:34;;;;;;;4.63;1.58;;;22.40;55.60;;;;;;5035774;28;20041;-81
2023/07/06 11:54:01;;;;;;;4.28;1.80;;;22.30;53.70;;;;;;5020213;28;20041;-80
2023/07/06 11:56:50;;;;;;;2.28;1.40;;;22.40;54.40;;;;;;5036294;28;20559;-82
2023/07/06 11:59:38;;;;;;;5.60;1.95;;;22.50;54.00;;;;;;5036823;28;20037;-80
2023/07/06 12:02:16;;;;;;;7.72;1.30;;;22.70;54.50;;;;;;5036758;28;20363;-80
2023/07/06 12:04:45;;;;;;;2.88;1.42;;;23.00;54.50;;;;;;5036652;28;20444;-81
2023/07/06 12:07:25;;;;;;;4.05;1.90;;;23.10;53.30;;;;;;5020875;28;20428;-80
2023/07/06 12:09:50;;;;;;;5.65;2.28;;;23.10;53.30;;;;;;5054039;28;20041;-80
2023/07/06 12:12:17;;;;;;;2.33;1.58;;;23.00;54.50;;;;;;5020189;28;20564;-81
2023/07/06 12:14:44;;;;;;;3.90;1.88;;;23.20;53.10;;;;;;5053149;28;20072;-81
2023/07/06 12:17:11;;;;;;;4.30;1.88;;;23.40;52.80;;;;;;5053230;28;20504;-81
2023/07/06 12:19:41;;;;;;;4.57;1.50;;;23.50;53.20;;;;;;5030585;28;20063;-79
2023/07/06 12:22:18;;;;;;;4.95;1.70;;;23.40;53.00;;;;;;5047695;28;20540;-79
2023/07/06 12:24:45;;;;;;;4.10;1.92;;;23.20;53.80;;;;;;5065252;28;20362;-80
2023/07/06 12:27:16;;;;;;;5.07;1.95;;;23.40;53.80;;;;;;5070996;28;20048;-81
2023/07/06 12:29:45;;;;;;;3.80;1.45;;;23.50;53.80;;;;;;5072417;28;20057;-81
2023/07/06 12:32:21;;;;;;;6.03;2.30;;;23.40;53.60;;;;;;5040935;28;20040;-84
2023/07/06 12:34:52;;;;;;;4.55;1.92;;;23.40;53.60;;;;;;5072772;28;20138;-83
2023/07/06 12:37:20;;;;;;;5.35;1.90;;;23.60;54.50;;;;;;5039490;28;20044;-83
2023/07/06 12:39:48;;;;;;;4.82;2.35;;;23.40;55.10;;;;;;5056036;28;20456;-84
2023/07/06 12:42:17;;;;;;;3.78;2.05;;;23.10;55.70;;;;;;5055469;28;20079;-84
2023/07/06 12:44:44;;;;;;;4.47;2.00;;;22.90;55.90;;;;;;5072140;28;20127;-84
2023/07/06 12:47:19;;;;;;;6.20;2.08;;;22.60;57.00;;;;;;5071895;28;20047;-84
2023/07/06 12:49:50;;;;;;;5.50;2.17;;;22.40;58.10;;;;;;5055177;28;20044;-84
2023/07/06 12:52:17;;;;;;;3.90;1.30;;;22.40;58.10;;;;;;5055927;28;20045;-83
2023/07/06 12:54:53;;;;;;;5.57;1.50;;;22.40;58.30;;;;;;5038581;28;20076;-83
2023/07/06 12:57:25;;;;;;;5.88;2.13;;;22.30;57.00;;;;;;5071772;28;20041;-83
2023/07/06 13:00:12;;;;;;;2.97;1.70;;;22.50;57.70;;;;;;5055517;28;20123;-83